Teterboro Airport
KTEB : rendu visible

Aérodrome :











RETROUVEZ-NOUS SUR...

 
LOGIN :

S'inscrire | Disclaimer

   EN    FR    IT 

 









Légende :    VFR   VFR Marginal   IFR   IFR Intensif   IFR Très Intensif
Visi : 
Plafond : 
>= 8 km
>= 3000ft
5 à 8 km
1000 à 3000 ft
1500m à 5 km
500 à 1000 ft
800 à 1500m
200 à 500 ft
< 800m
< 200 ft
Symboles :   Orages  Brouillard  Fortes neiges  Fortes précipitations  Vent > 20 kt






- Altitude de l'aérodrome : 9 ft


KTEB - Teterboro

DERNIER METAR :
  • 220051Z 23009KT 10SM CLR 00/M14 A3039 RMK AO2 SLP292 T00001144

METARs EXPIRÉS :
  • 212251Z 26006KT 10SM CLR 01/M16 A3040 RMK AO2 SLP293 T00061156

TAF KTEB
Valide du 21 à 20h jusqu'au 23 à 00h UTC


212020Z 2120/2224 24004KT P6SM SKC
FM212100 24006KT P6SM SKC
FM212300 23004KT P6SM SKC
FM221400 26010G17KT P6SM SKC



MET'MAP, la Météo Aéronautique d'un coup d'oeil ! - Copyright ORBIFLY Décembre 2007 - Disclaimer

ORBIFLY MET'MAP TEAM :

Programmation & Développement : Alexandra Zaïnal
Sur une idée originale de : Baudouin d'Aumeries
Assistance à la programmation : Marc-Olivier Méhu
Soutien technique & logistique : Manuel Goepfert

Contact : metmap@orbifly.com




SOURCES & CREDITS :

   NOAA       Earth
Advisory